Main page
METAR-TAF:

METAR-TAF

Airports :

Humberside Airport

Humberside, England

latitude: 53-35N, longitude: 000-21W, elevation: 31 m

Current weather observation

The report was made 27 minutes ago, at 13:20 UTC
Wind 6 kt from the South/Southwest
Temperature 7°C
Humidity 81%
Pressure 997 hPa
Visibility 10 km or more
Few clouds at a height of 2200 ft

METAR: EGNJ 131320Z 21006KT 9999 FEW022 07/04 Q0997

Time: 13:47 (13:47 UTC)

Forecast

The report was made 2 hours and 49 minutes ago, at 10:58 UTC
Forecast valid from 13 at 12 UTC to 13 at 21 UTC
Wind 10 kt from the South/Southwest
Visibility 10 km or more
Scattered clouds at a height of 2500 ft
Probability 30% :
Temporary
from 13 at 12 UTC to 13 at 15 UTC
Broken clouds at a height of 1400 ft
Becoming
from 13 at 14 UTC to 13 at 17 UTC
Wind 5 kt from variable directions

TAF: EGNJ 131058Z 1312/1321 20010KT 9999 SCT025 PROB30 TEMPO 1312/1315 BKN014 BECMG 1314/1317 VRB05KT

Weather observations and forecasts of more than 4000 airports (METAR and TAF reports).

The available stations are represented by yellow and red dots on the map.

Hover mouse over dot to see the name of the station.

Then click to see weather observations and forecasts.

To change the map : click on the green buttons with a black cross to zoom in, on the green button with a dash to zoom out, or on the green arrows for adjacent maps.


METAR-TAF: